Time;durP1;ratioP1;P1;durP2;ratioP2;P2;SDS_P1;SDS_P2;PMS_P1;PMS_P2;Temp;Humidity;BMP_temperature;BMP_pressure;BME280_temperature;BME280_humidity;BME280_pressure;Samples;Min_cycle;Max_cycle;Signal;HPM_P1;HPM_P2
2023/10/16 00:00:47;;;;;;;74.75;53.17;;;5.60;99.90;;;;;;5074135;28;20518;-77
2023/10/16 00:03:14;;;;;;;71.40;51.57;;;5.50;99.90;;;;;;5075906;28;20206;-77
2023/10/16 00:05:45;;;;;;;71.97;56.85;;;5.50;99.90;;;;;;5056460;28;20415;-78
2023/10/16 00:08:12;;;;;;;72.65;50.25;;;5.50;99.90;;;;;;5073810;28;20561;-77
2023/10/16 00:10:38;;;;;;;72.15;51.63;;;5.50;99.90;;;;;;5073815;28;20242;-78
2023/10/16 00:13:04;;;;;;;77.07;60.37;;;5.50;99.90;;;;;;5073204;28;20259;-78
2023/10/16 00:15:40;;;;;;;69.43;47.80;;;5.40;99.90;;;;;;5073542;28;20194;-78
2023/10/16 00:18:33;;;;;;;71.70;49.55;;;5.40;99.90;;;;;;5073982;28;20149;-78
2023/10/16 00:20:58;;;;;;;70.13;50.55;;;5.30;99.90;;;;;;5073724;28;20171;-78
2023/10/16 00:23:30;;;;;;;70.57;54.87;;;5.40;99.90;;;;;;5073573;28;20249;-78
2023/10/16 00:25:58;;;;;;;70.82;49.20;;;5.40;99.90;;;;;;5073688;28;20513;-78
2023/10/16 00:28:24;;;;;;;69.65;47.30;;;5.30;99.90;;;;;;5073655;28;20634;-78
2023/10/16 00:30:50;;;;;;;68.18;44.40;;;5.30;99.90;;;;;;5073624;28;20178;-78
2023/10/16 00:33:17;;;;;;;70.63;47.58;;;5.30;99.90;;;;;;5055422;28;20245;-78
2023/10/16 00:35:50;;;;;;;70.75;53.85;;;5.20;99.90;;;;;;5055470;28;20188;-78
2023/10/16 00:38:20;;;;;;;72.75;56.95;;;5.20;99.90;;;;;;5073971;28;20613;-78
2023/10/16 00:41:05;;;;;;;70.68;53.30;;;5.10;99.90;;;;;;5073785;28;20167;-78
2023/10/16 00:43:34;;;;;;;70.68;47.58;;;5.20;99.90;;;;;;5073679;28;20183;-78
2023/10/16 00:46:05;;;;;;;76.28;57.58;;;5.10;99.90;;;;;;5073598;28;20164;-77
2023/10/16 00:48:34;;;;;;;69.28;53.53;;;5.10;99.90;;;;;;5055544;28;20154;-78
2023/10/16 00:51:06;;;;;;;73.95;53.78;;;5.10;99.90;;;;;;5073719;28;20167;-77
2023/10/16 00:53:32;;;;;;;67.82;49.20;;;5.00;99.90;;;;;;5073629;28;20196;-77
2023/10/16 00:55:58;;;;;;;70.03;51.08;;;5.00;99.90;;;;;;5073549;28;20203;-78
2023/10/16 00:58:29;;;;;;;73.43;55.80;;;5.00;99.90;;;;;;5073598;28;20528;-77
2023/10/16 01:00:57;;;;;;;75.13;47.75;;;5.00;99.90;;;;;;5073428;28;20938;-77
2023/10/16 01:03:24;;;;;;;69.28;48.67;;;5.00;99.90;;;;;;5073761;28;20189;-77
2023/10/16 01:05:50;;;;;;;80.40;61.17;;;5.00;99.90;;;;;;5055292;28;20167;-77
2023/10/16 01:08:17;;;;;;;73.15;57.10;;;5.00;99.90;;;;;;5073459;28;20665;-77
2023/10/16 01:10:48;;;;;;;67.50;48.35;;;4.90;99.90;;;;;;5055597;28;20169;-77
2023/10/16 01:13:16;;;;;;;71.90;56.20;;;4.90;99.90;;;;;;5073393;28;20258;-77
2023/10/16 01:15:50;;;;;;;69.18;47.63;;;4.80;99.90;;;;;;5073601;28;20196;-77
2023/10/16 01:18:17;;;;;;;69.50;52.65;;;4.70;99.90;;;;;;5055387;28;20234;-77
2023/10/16 01:20:50;;;;;;;67.63;50.83;;;4.70;99.90;;;;;;5073279;28;20167;-77
2023/10/16 01:23:18;;;;;;;73.82;49.67;;;4.70;99.90;;;;;;5073111;28;20195;-78
2023/10/16 01:25:46;;;;;;;66.97;44.42;;;4.70;99.90;;;;;;5076312;28;20647;-77
2023/10/16 01:28:15;;;;;;;72.82;58.47;;;4.70;99.90;;;;;;5077170;28;20634;-78
2023/10/16 01:30:42;;;;;;;68.40;48.88;;;4.70;99.90;;;;;;5077053;28;20172;-77
2023/10/16 01:33:08;;;;;;;69.40;55.08;;;4.60;99.90;;;;;;5076935;28;20237;-77
2023/10/16 01:35:36;;;;;;;74.50;60.70;;;4.70;99.90;;;;;;5076959;28;20269;-77
2023/10/16 01:38:18;;;;;;;69.40;46.47;;;4.70;99.90;;;;;;5079532;28;20402;-78
2023/10/16 01:40:47;;;;;;;70.93;53.50;;;4.70;99.90;;;;;;5059080;28;20160;-78
2023/10/16 01:43:16;;;;;;;74.85;60.40;;;4.80;99.90;;;;;;5058527;28;20198;-78
2023/10/16 01:45:55;;;;;;;70.25;53.75;;;4.80;99.90;;;;;;5077023;28;20156;-78
2023/10/16 01:48:21;;;;;;;71.22;56.72;;;4.70;99.90;;;;;;5077267;28;20153;-78
2023/10/16 01:50:50;;;;;;;74.70;53.77;;;4.70;99.90;;;;;;5076480;28;20536;-78
2023/10/16 01:53:25;;;;;;;72.18;56.70;;;4.60;99.90;;;;;;5059070;28;20446;-78
2023/10/16 01:55:54;;;;;;;68.55;52.47;;;4.70;99.90;;;;;;5077126;28;20179;-78
2023/10/16 01:58:21;;;;;;;70.15;45.05;;;4.70;99.90;;;;;;5076630;28;20243;-78
2023/10/16 02:00:47;;;;;;;68.70;52.88;;;4.70;99.90;;;;;;5076585;28;20242;-78
2023/10/16 02:03:16;;;;;;;72.37;58.43;;;4.70;99.90;;;;;;5076806;28;20218;-78
2023/10/16 02:05:45;;;;;;;79.55;58.75;;;4.70;99.90;;;;;;5076509;28;20407;-78
2023/10/16 02:08:12;;;;;;;69.40;50.97;;;4.70;99.90;;;;;;5076291;28;20171;-78
2023/10/16 02:10:38;;;;;;;76.00;55.67;;;4.70;99.90;;;;;;5076843;28;20196;-78
2023/10/16 02:13:04;;;;;;;70.95;52.80;;;4.70;99.90;;;;;;5076552;28;20187;-78
2023/10/16 02:15:29;;;;;;;69.43;53.83;;;4.70;99.90;;;;;;5076604;28;20661;-78
2023/10/16 02:17:55;;;;;;;69.90;51.43;;;4.70;99.90;;;;;;5076121;28;20168;-78
2023/10/16 02:20:26;;;;;;;70.50;50.97;;;4.70;99.90;;;;;;5076361;28;20242;-78
2023/10/16 02:22:53;;;;;;;74.32;50.10;;;4.70;99.90;;;;;;5076411;28;20181;-77
2023/10/16 02:25:19;;;;;;;72.47;58.25;;;4.70;99.90;;;;;;5076231;28;20234;-78
2023/10/16 02:27:45;;;;;;;69.97;53.43;;;4.70;99.90;;;;;;5075807;28;20795;-77
2023/10/16 02:32:53;;;;;;;75.57;60.45;;;4.60;99.90;;;;;;5075609;28;20184;-77
2023/10/16 02:35:21;;;;;;;69.90;52.38;;;4.60;99.90;;;;;;5075815;28;20227;-78
2023/10/16 02:37:53;;;;;;;77.80;51.83;;;4.50;99.90;;;;;;5075225;28;20556;-78
2023/10/16 02:40:20;;;;;;;68.93;45.65;;;4.50;99.90;;;;;;5075854;28;20220;-78
2023/10/16 02:42:55;;;;;;;69.45;49.80;;;4.40;99.90;;;;;;5075465;28;20203;-78
2023/10/16 02:45:24;;;;;;;66.68;45.30;;;4.40;99.90;;;;;;5075710;28;20629;-77
2023/10/16 02:47:51;;;;;;;74.55;47.05;;;4.40;99.90;;;;;;5075731;28;20643;-77
2023/10/16 02:50:18;;;;;;;69.03;46.30;;;4.40;99.90;;;;;;5075862;28;20535;-77
2023/10/16 02:52:45;;;;;;;68.35;49.70;;;4.40;99.90;;;;;;5075356;28;20231;-77
2023/10/16 02:55:11;;;;;;;69.20;53.92;;;4.40;99.90;;;;;;5075485;28;20191;-77
2023/10/16 02:57:40;;;;;;;68.10;49.10;;;4.40;99.90;;;;;;5075417;28;20575;-78
2023/10/16 03:00:24;;;;;;;72.05;51.00;;;4.40;99.90;;;;;;5075060;28;20419;-77
2023/10/16 03:02:50;;;;;;;70.10;51.92;;;4.40;99.90;;;;;;5057536;28;20758;-77
2023/10/16 03:05:26;;;;;;;65.73;46.73;;;4.30;99.90;;;;;;5057214;28;20213;-78
2023/10/16 03:07:52;;;;;;;68.55;53.72;;;4.40;99.90;;;;;;5057240;28;20751;-77
2023/10/16 03:10:20;;;;;;;72.57;53.70;;;4.30;99.90;;;;;;5075297;28;20165;-78
2023/10/16 03:12:50;;;;;;;68.57;47.25;;;4.30;99.90;;;;;;5078246;28;20186;-78
2023/10/16 03:15:29;;;;;;;65.68;45.13;;;4.30;99.90;;;;;;5075950;28;20685;-78
2023/10/16 03:17:55;;;;;;;67.03;47.83;;;4.30;99.90;;;;;;5057434;28;20184;-78
2023/10/16 03:20:23;;;;;;;72.63;53.25;;;4.30;99.90;;;;;;5075112;28;20533;-78
2023/10/16 03:22:50;;;;;;;67.57;47.35;;;4.30;99.90;;;;;;5074496;28;20181;-78
2023/10/16 03:25:30;;;;;;;67.75;45.42;;;4.30;99.90;;;;;;5056774;28;20174;-78
2023/10/16 03:27:56;;;;;;;67.57;50.30;;;4.30;99.90;;;;;;5074721;28;20179;-78
2023/10/16 03:30:26;;;;;;;70.97;52.93;;;4.30;99.90;;;;;;5074801;28;20162;-78
2023/10/16 03:32:53;;;;;;;66.72;49.47;;;4.30;99.90;;;;;;5075378;28;20183;-78
2023/10/16 03:35:26;;;;;;;66.78;47.17;;;4.20;99.90;;;;;;5056749;28;20247;-78
2023/10/16 03:37:52;;;;;;;68.25;51.92;;;4.20;99.90;;;;;;5074874;28;20171;-78
2023/10/16 03:40:19;;;;;;;66.38;48.60;;;4.10;99.90;;;;;;5074981;28;20637;-78
2023/10/16 03:42:48;;;;;;;68.15;47.17;;;4.10;99.90;;;;;;5075064;28;20590;-78
2023/10/16 03:45:14;;;;;;;67.90;46.08;;;4.10;99.90;;;;;;5074865;28;20174;-78
2023/10/16 03:47:41;;;;;;;68.65;47.10;;;4.10;99.90;;;;;;5074117;28;20591;-78
2023/10/16 03:50:08;;;;;;;64.03;45.33;;;4.00;99.90;;;;;;5074949;28;20167;-77
2023/10/16 03:52:35;;;;;;;75.40;55.40;;;4.00;99.90;;;;;;5074489;28;20183;-78
2023/10/16 03:55:22;;;;;;;66.88;47.00;;;4.00;99.90;;;;;;5056843;28;20226;-78
2023/10/16 03:57:51;;;;;;;65.13;49.63;;;4.00;99.90;;;;;;5074711;28;20144;-78
2023/10/16 04:00:26;;;;;;;66.60;52.08;;;4.00;99.90;;;;;;5075029;28;20162;-77
2023/10/16 04:02:52;;;;;;;64.57;46.80;;;4.00;99.90;;;;;;5074053;28;20212;-77
2023/10/16 04:05:30;;;;;;;71.05;52.15;;;3.90;99.90;;;;;;5056321;28;20167;-77
2023/10/16 04:07:56;;;;;;;65.95;46.28;;;4.00;99.90;;;;;;5074198;28;20151;-77
2023/10/16 04:10:28;;;;;;;68.07;48.15;;;4.00;99.90;;;;;;5074293;28;20168;-78
2023/10/16 04:12:55;;;;;;;67.22;50.20;;;4.00;99.90;;;;;;5074086;28;20187;-78
2023/10/16 04:21:37;;;;;;;68.70;50.42;;;4.00;99.90;;;;;;5073883;28;20146;-78
2023/10/16 04:34:24;;;;;;;65.55;46.90;;;4.00;99.90;;;;;;5073745;28;20182;-77
2023/10/16 04:42:49;;;;;;;61.42;39.25;;;3.90;99.90;;;;;;5073907;28;20174;-77
2023/10/16 05:03:23;;;;;;;63.45;43.53;;;3.90;99.90;;;;;;5077721;28;20182;-78
2023/10/16 05:05:56;;;;;;;64.55;44.38;;;3.90;99.90;;;;;;5078274;28;20167;-78
2023/10/16 05:08:38;;;;;;;66.47;47.17;;;3.80;99.90;;;;;;5077983;28;20229;-78
2023/10/16 05:13:42;;;;;;;66.95;48.42;;;3.90;99.90;;;;;;5077366;28;20683;-78
2023/10/16 05:19:03;;;;;;;64.20;45.80;;;4.00;99.90;;;;;;5077744;28;20158;-78
2023/10/16 06:16:23;;;;;;;68.85;49.50;;;4.50;99.90;;;;;;5075957;28;20204;-77
2023/10/16 06:18:49;;;;;;;66.77;45.40;;;4.60;99.90;;;;;;5057414;28;20586;-77
2023/10/16 06:21:15;;;;;;;67.17;49.43;;;4.60;99.90;;;;;;5075936;28;20186;-78
2023/10/16 06:23:48;;;;;;;75.60;54.22;;;4.60;99.90;;;;;;5075227;28;20454;-77
2023/10/16 06:26:15;;;;;;;71.13;47.65;;;4.60;99.90;;;;;;5075370;28;20151;-78
2023/10/16 06:28:47;;;;;;;71.82;47.90;;;4.70;99.90;;;;;;5075089;28;20164;-77
2023/10/16 06:31:22;;;;;;;68.75;56.03;;;4.70;99.90;;;;;;5075244;28;20227;-77
2023/10/16 06:33:58;;;;;;;67.93;48.95;;;4.70;99.90;;;;;;5074751;28;20268;-77
2023/10/16 06:36:25;;;;;;;73.60;61.30;;;4.80;99.90;;;;;;5057192;28;20644;-77
2023/10/16 06:38:53;;;;;;;71.57;55.58;;;4.90;99.90;;;;;;5075107;28;20171;-77
2023/10/16 06:41:25;;;;;;;72.43;53.80;;;4.80;99.90;;;;;;5074965;28;20173;-77
2023/10/16 06:43:50;;;;;;;81.75;57.70;;;4.60;99.90;;;;;;5056154;28;20683;-77
2023/10/16 06:46:25;;;;;;;72.87;45.53;;;4.60;99.90;;;;;;5074846;28;20152;-77
2023/10/16 06:48:52;;;;;;;92.05;57.25;;;4.60;99.90;;;;;;5074882;28;20536;-77
2023/10/16 06:51:17;;;;;;;80.95;57.08;;;4.60;99.90;;;;;;5074510;28;20585;-77
2023/10/16 06:53:47;;;;;;;77.93;55.60;;;4.60;99.90;;;;;;5074385;28;20258;-77
2023/10/16 06:56:27;;;;;;;84.22;56.22;;;4.60;99.90;;;;;;5074980;28;20966;-77
2023/10/16 06:58:54;;;;;;;82.70;59.97;;;4.70;99.90;;;;;;5056393;28;20159;-77
2023/10/16 07:01:20;;;;;;;81.95;63.00;;;4.80;99.90;;;;;;5074263;28;20251;-77
2023/10/16 07:03:47;;;;;;;86.00;64.87;;;4.80;99.90;;;;;;5074154;28;20268;-77
2023/10/16 07:06:14;;;;;;;95.00;66.63;;;4.90;99.90;;;;;;5074509;28;20164;-77
2023/10/16 07:08:41;;;;;;;86.45;61.75;;;5.00;99.90;;;;;;5074440;28;20239;-77
2023/10/16 07:11:11;;;;;;;79.10;55.15;;;5.00;99.90;;;;;;5074292;28;20157;-77
2023/10/16 07:13:38;;;;;;;84.32;63.75;;;4.90;99.90;;;;;;5074356;28;20549;-77
2023/10/16 07:16:05;;;;;;;87.00;68.68;;;5.00;99.90;;;;;;5074612;28;20629;-77
2023/10/16 07:18:33;;;;;;;82.82;64.80;;;5.00;99.90;;;;;;5074355;28;20266;-77
2023/10/16 07:20:59;;;;;;;91.35;72.30;;;5.00;99.90;;;;;;5056330;28;20191;-77
2023/10/16 07:23:29;;;;;;;88.20;67.68;;;5.00;99.90;;;;;;5074200;28;20253;-77
2023/10/16 07:25:56;;;;;;;90.22;66.28;;;5.00;99.90;;;;;;5056176;28;20210;-77
2023/10/16 07:28:22;;;;;;;88.28;70.72;;;4.90;99.90;;;;;;5074204;28;20217;-77
2023/10/16 07:30:49;;;;;;;84.53;65.15;;;5.00;99.90;;;;;;5074319;28;20172;-77
2023/10/16 07:33:14;;;;;;;89.65;73.68;;;5.00;99.90;;;;;;5074145;28;20199;-77
2023/10/16 07:35:47;;;;;;;88.17;65.77;;;5.10;99.90;;;;;;5073934;28;20192;-77
2023/10/16 07:38:19;;;;;;;91.50;68.32;;;5.10;99.90;;;;;;5074140;28;20383;-77
2023/10/16 07:40:52;;;;;;;91.63;72.25;;;5.00;99.90;;;;;;5074179;28;20506;-77
2023/10/16 07:43:28;;;;;;;95.35;75.80;;;5.20;99.90;;;;;;5074136;28;20187;-77
2023/10/16 07:48:50;;;;;;;98.32;61.28;;;5.20;99.90;;;;;;5073860;28;20616;-77
2023/10/16 07:51:19;;;;;;;99.28;65.60;;;5.30;99.90;;;;;;5073858;28;20151;-78
2023/10/16 07:53:48;;;;;;;92.20;78.18;;;5.30;99.90;;;;;;5073253;28;20191;-78
2023/10/16 07:58:56;;;;;;;91.85;76.00;;;5.60;99.90;;;;;;5073664;28;20147;-77
2023/10/16 08:01:48;;;;;;;91.00;79.50;;;5.60;99.90;;;;;;5073748;28;20270;-78
2023/10/16 08:04:36;;;;;;;85.88;68.20;;;5.50;99.90;;;;;;5073401;28;20145;-77
2023/10/16 08:07:04;;;;;;;88.20;69.93;;;5.50;99.90;;;;;;5072988;28;20184;-77
2023/10/16 08:12:34;;;;;;;87.85;71.95;;;5.60;99.90;;;;;;5073386;28;20683;-77
2023/10/16 08:15:08;;;;;;;99.55;77.40;;;5.50;99.90;;;;;;5073091;28;20202;-77
2023/10/16 08:17:35;;;;;;;87.95;71.40;;;5.40;99.90;;;;;;5073659;28;20602;-77
2023/10/16 08:20:04;;;;;;;92.57;74.30;;;5.60;99.90;;;;;;5073117;28;20163;-78
2023/10/16 08:22:29;;;;;;;99.60;82.25;;;5.60;99.90;;;;;;5073087;28;20176;-78
2023/10/16 08:24:57;;;;;;;97.33;71.93;;;5.70;99.90;;;;;;5072958;28;20282;-77
2023/10/16 08:27:47;;;;;;;93.90;74.25;;;5.70;99.90;;;;;;5073244;28;20254;-77
2023/10/16 08:33:06;;;;;;;94.20;78.75;;;5.90;99.90;;;;;;5073190;28;20199;-77
2023/10/16 08:35:38;;;;;;;101.60;84.63;;;6.00;99.90;;;;;;5076008;28;20179;-77
2023/10/16 08:38:20;;;;;;;123.93;83.95;;;6.00;99.90;;;;;;5077527;28;20155;-77
2023/10/16 08:40:57;;;;;;;99.75;84.85;;;6.00;99.90;;;;;;5077147;28;20145;-77
2023/10/16 08:43:39;;;;;;;100.20;85.80;;;6.20;99.90;;;;;;5077091;28;20672;-77
2023/10/16 08:46:18;;;;;;;105.88;91.32;;;6.30;99.90;;;;;;5077102;28;20149;-77
2023/10/16 08:48:52;;;;;;;107.32;88.60;;;6.30;99.90;;;;;;5077307;28;20190;-77
2023/10/16 08:51:19;;;;;;;122.03;108.38;;;6.30;99.90;;;;;;5077178;28;20173;-77
2023/10/16 08:53:45;;;;;;;114.15;100.80;;;6.50;99.90;;;;;;5077205;28;20199;-76
2023/10/16 08:56:17;;;;;;;110.70;96.00;;;6.60;99.90;;;;;;5077011;28;20658;-77
2023/10/16 08:58:49;;;;;;;116.18;101.95;;;6.60;99.90;;;;;;5076833;28;20149;-76
2023/10/16 09:01:16;;;;;;;119.53;107.15;;;6.60;99.90;;;;;;5076693;28;20161;-79
2023/10/16 09:03:46;;;;;;;117.88;105.00;;;6.70;99.90;;;;;;5077990;28;20186;-79
2023/10/16 09:06:22;;;;;;;123.88;111.75;;;6.70;99.90;;;;;;5076880;28;20168;-76
2023/10/16 09:08:48;;;;;;;115.97;101.95;;;6.90;99.90;;;;;;5076729;28;20236;-76
2023/10/16 09:11:16;;;;;;;148.55;134.70;;;6.80;99.90;;;;;;5058655;28;20165;-79
2023/10/16 09:13:46;;;;;;;133.93;121.68;;;7.00;99.90;;;;;;5076556;28;20562;-77
2023/10/16 09:16:13;;;;;;;144.85;131.68;;;7.10;99.90;;;;;;5076465;28;20145;-76
2023/10/16 09:18:42;;;;;;;187.50;173.13;;;7.30;99.90;;;;;;5076551;28;20675;-79
2023/10/16 09:21:13;;;;;;;191.90;177.02;;;7.50;99.90;;;;;;5077197;28;20260;-77
2023/10/16 09:23:51;;;;;;;192.75;178.32;;;7.70;99.90;;;;;;5076670;28;20615;-79
2023/10/16 09:26:24;;;;;;;169.95;155.65;;;7.80;99.90;;;;;;5076493;28;20183;-77
2023/10/16 09:28:56;;;;;;;163.45;149.07;;;7.80;99.90;;;;;;5076438;28;20145;-77
2023/10/16 09:31:24;;;;;;;130.75;118.45;;;7.40;99.90;;;;;;5076681;28;20157;-77
2023/10/16 09:33:51;;;;;;;160.85;147.13;;;7.50;99.90;;;;;;5075908;28;20605;-77
2023/10/16 09:36:20;;;;;;;155.27;142.25;;;7.50;99.90;;;;;;5076554;28;20167;-77
2023/10/16 09:38:57;;;;;;;200.45;185.18;;;7.60;99.90;;;;;;5058363;28;20191;-77
2023/10/16 09:43:56;;;;;;;162.95;149.38;;;7.80;99.90;;;;;;5076040;28;20192;-77
2023/10/16 09:49:13;;;;;;;158.07;144.88;;;8.20;99.90;;;;;;5075709;28;20148;-77
2023/10/16 09:51:45;;;;;;;140.52;127.93;;;8.40;99.90;;;;;;5075664;28;20526;-77
2023/10/16 09:54:14;;;;;;;137.98;125.78;;;8.60;99.90;;;;;;5075634;28;20184;-77
2023/10/16 09:56:52;;;;;;;151.38;138.52;;;8.90;99.90;;;;;;5076119;28;20161;-77
2023/10/16 09:59:33;;;;;;;120.70;109.10;;;8.90;99.90;;;;;;5075574;28;20140;-77
2023/10/16 10:02:16;;;;;;;93.43;78.60;;;9.20;99.90;;;;;;5075668;28;20145;-77
2023/10/16 10:04:53;;;;;;;92.15;74.47;;;9.50;99.90;;;;;;5075889;28;20202;-77
2023/10/16 10:07:22;;;;;;;80.20;57.53;;;9.80;99.90;;;;;;5075623;28;20195;-77
2023/10/16 10:09:53;;;;;;;81.43;59.42;;;9.90;99.90;;;;;;5075410;28;20192;-77
2023/10/16 10:12:47;;;;;;;80.55;54.67;;;9.90;99.90;;;;;;5075707;28;20216;-76
2023/10/16 10:15:22;;;;;;;81.63;51.65;;;9.90;99.90;;;;;;5057326;28;20200;-77
2023/10/16 10:17:53;;;;;;;82.05;59.22;;;9.90;99.90;;;;;;5075621;28;20508;-77
2023/10/16 10:20:25;;;;;;;76.90;52.78;;;10.10;99.90;;;;;;5075526;28;20148;-77
2023/10/16 10:22:56;;;;;;;83.57;60.28;;;10.20;99.90;;;;;;5074863;28;20191;-77
2023/10/16 10:25:41;;;;;;;84.28;61.28;;;9.90;99.90;;;;;;5075427;28;20157;-77
2023/10/16 10:28:22;;;;;;;76.20;50.67;;;10.00;99.90;;;;;;5076477;28;20145;-77
2023/10/16 10:30:49;;;;;;;74.22;50.65;;;10.10;99.90;;;;;;5076538;28;20152;-76
2023/10/16 10:33:37;;;;;;;79.72;55.10;;;10.30;99.90;;;;;;5075742;28;20192;-77
2023/10/16 10:36:27;;;;;;;77.05;57.20;;;10.20;99.90;;;;;;5076593;28;20190;-77
2023/10/16 10:39:38;;;;;;;76.10;52.58;;;10.20;99.90;;;;;;5076555;28;20544;-76
2023/10/16 10:42:05;;;;;;;76.28;51.15;;;10.20;99.90;;;;;;5075160;28;20184;-76
2023/10/16 10:44:44;;;;;;;75.22;50.92;;;10.40;99.90;;;;;;5075696;28;20168;-77
2023/10/16 10:47:32;;;;;;;77.57;48.60;;;10.60;99.90;;;;;;5076669;28;20149;-77
2023/10/16 10:50:00;;;;;;;76.00;57.58;;;10.90;99.90;;;;;;5076325;28;20145;-77
2023/10/16 10:52:32;;;;;;;76.70;56.05;;;11.10;99.90;;;;;;5075438;28;20250;-77
2023/10/16 10:54:58;;;;;;;81.40;61.00;;;11.20;99.90;;;;;;5056954;28;20191;-77
2023/10/16 10:57:25;;;;;;;79.95;61.58;;;11.30;99.90;;;;;;5074832;28;20156;-77
2023/10/16 11:05:08;;;;;;;79.57;59.83;;;11.40;92.70;;;;;;5076090;28;20164;-77
2023/10/16 11:07:45;;;;;;;77.45;62.13;;;11.50;22.80;;;;;;5078146;28;20156;-77
2023/10/16 11:10:13;;;;;;;83.78;69.07;;;11.40;22.50;;;;;;5077493;28;20640;-77
2023/10/16 11:12:39;;;;;;;88.32;72.32;;;11.20;3.30;;;;;;5078473;28;20290;-77
2023/10/16 11:15:19;;;;;;;82.97;63.90;;;11.20;16.30;;;;;;5076076;28;20526;-77
2023/10/16 11:17:46;;;;;;;79.55;67.20;;;11.30;24.90;;;;;;5074724;28;20148;-77
2023/10/16 11:22:44;;;;;;;82.55;66.70;;;11.40;1.00;;;;;;5075685;28;20322;-77
2023/10/16 11:25:14;;;;;;;80.03;65.55;;;11.60;12.80;;;;;;5074918;28;20172;-77
2023/10/16 11:27:43;;;;;;;81.72;71.18;;;11.80;1.00;;;;;;5057097;28;20175;-77
2023/10/16 11:30:14;;;;;;;86.57;77.30;;;11.80;1.00;;;;;;5075385;28;20179;-77
2023/10/16 11:32:45;;;;;;;75.53;66.38;;;11.80;1.00;;;;;;5057729;28;20588;-77
2023/10/16 11:35:15;;;;;;;81.25;68.88;;;11.80;1.00;;;;;;5075791;28;20271;-77
2023/10/16 11:38:04;;;;;;;79.95;63.28;;;11.60;1.00;;;;;;5076065;28;20528;-77
2023/10/16 11:40:39;;;;;;;83.47;66.63;;;11.50;1.90;;;;;;5076452;28;20709;-77
2023/10/16 11:43:12;;;;;;;81.07;71.82;;;11.60;2.80;;;;;;5057268;28;20195;-77
2023/10/16 11:45:39;;;;;;;81.20;72.20;;;11.70;1.40;;;;;;5076155;28;20156;-76
2023/10/16 11:51:07;;;;;;;82.90;69.75;;;11.90;1.00;;;;;;5075526;28;20155;-77
2023/10/16 11:53:34;;;;;;;88.25;75.88;;;11.90;1.00;;;;;;5076327;28;20216;-77
2023/10/16 11:56:01;;;;;;;84.53;70.05;;;11.80;1.00;;;;;;5076209;28;20191;-77
2023/10/16 11:58:27;;;;;;;78.78;66.05;;;12.00;1.00;;;;;;5076298;28;20160;-77
2023/10/16 12:00:54;;;;;;;87.40;73.90;;;12.10;1.00;;;;;;5075096;28;20156;-77
2023/10/16 12:03:23;;;;;;;89.15;79.55;;;12.10;1.00;;;;;;5075409;28;20184;-77
2023/10/16 12:05:50;;;;;;;84.40;70.00;;;12.00;1.00;;;;;;5075789;28;20638;-77
2023/10/16 12:08:18;;;;;;;86.07;73.53;;;12.20;1.00;;;;;;5076802;28;20168;-77
2023/10/16 12:10:46;;;;;;;84.10;74.93;;;12.20;1.00;;;;;;5076493;28;20164;-77
2023/10/16 12:13:13;;;;;;;86.88;77.32;;;12.30;1.00;;;;;;5079459;28;20919;-77
2023/10/16 12:15:43;;;;;;;74.03;58.67;;;12.50;1.00;;;;;;5080093;28;20688;-77
2023/10/16 12:18:09;;;;;;;73.25;47.60;;;12.40;1.00;;;;;;5077978;28;20161;-77
2023/10/16 12:20:37;;;;;;;74.07;47.17;;;12.50;1.00;;;;;;5079559;28;20657;-77
2023/10/16 12:23:04;;;;;;;65.77;35.60;;;12.60;1.00;;;;;;5079080;28;20212;-77
2023/10/16 12:25:30;;;;;;;70.53;31.92;;;12.50;1.00;;;;;;5078925;28;20417;-77
2023/10/16 12:27:55;;;;;;;64.47;35.13;;;12.40;1.00;;;;;;5075754;28;20169;-77
2023/10/16 12:30:22;;;;;;;68.77;43.13;;;12.50;1.00;;;;;;5078330;28;20424;-77
2023/10/16 12:32:49;;;;;;;68.23;43.13;;;12.40;1.00;;;;;;5080705;28;20185;-77
2023/10/16 12:35:18;;;;;;;65.88;36.00;;;12.40;1.00;;;;;;5081179;28;20471;-78
2023/10/16 12:37:44;;;;;;;67.10;43.38;;;12.50;1.00;;;;;;5077105;28;20213;-77
2023/10/16 12:42:55;;;;;;;65.27;40.10;;;12.10;1.00;;;;;;5080109;28;20230;-77
2023/10/16 12:45:25;;;;;;;70.10;46.97;;;12.30;1.00;;;;;;5061722;28;20920;-77
2023/10/16 12:47:51;;;;;;;71.37;48.50;;;12.20;1.00;;;;;;5077886;28;20231;-77
2023/10/16 12:50:23;;;;;;;68.90;42.67;;;12.20;1.00;;;;;;5078998;28;20465;-77
2023/10/16 12:52:50;;;;;;;70.65;48.55;;;12.50;1.00;;;;;;5060534;28;20437;-77
2023/10/16 12:55:16;;;;;;;71.43;51.40;;;12.30;1.00;;;;;;5076291;28;20688;-77
2023/10/16 12:57:44;;;;;;;74.40;45.37;;;12.30;1.00;;;;;;5075587;28;20395;-77
2023/10/16 13:00:18;;;;;;;66.68;41.15;;;12.10;1.00;;;;;;5075202;28;20414;-77
2023/10/16 13:02:45;;;;;;;64.20;34.47;;;12.30;1.00;;;;;;5077603;28;20181;-77
2023/10/16 13:05:15;;;;;;;64.03;34.07;;;12.30;1.00;;;;;;5078104;28;20626;-77
2023/10/16 13:07:43;;;;;;;63.60;29.13;;;12.50;1.00;;;;;;5077573;28;20493;-77
2023/10/16 13:10:26;;;;;;;68.45;45.22;;;12.60;1.00;;;;;;5059934;28;20410;-77
2023/10/16 13:12:52;;;;;;;66.73;39.27;;;12.40;1.00;;;;;;5076591;28;20191;-77
2023/10/16 13:15:31;;;;;;;70.47;44.03;;;12.40;1.00;;;;;;5076565;28;20442;-77
2023/10/16 13:17:58;;;;;;;63.17;34.80;;;12.40;1.00;;;;;;5076778;28;20213;-77
2023/10/16 13:20:32;;;;;;;58.30;26.55;;;12.40;1.00;;;;;;5078087;28;20399;-77
2023/10/16 13:22:58;;;;;;;65.85;33.13;;;12.20;1.00;;;;;;5062268;28;20184;-77
2023/10/16 13:25:28;;;;;;;59.17;26.83;;;12.10;1.00;;;;;;5079750;28;20172;-77
2023/10/16 13:27:55;;;;;;;59.30;27.65;;;12.30;1.00;;;;;;5079625;28;20402;-77
2023/10/16 13:30:25;;;;;;;61.42;29.58;;;12.10;1.00;;;;;;5079762;28;20571;-77
2023/10/16 13:32:52;;;;;;;59.73;29.93;;;12.20;1.00;;;;;;5080096;28;20244;-77
2023/10/16 13:35:20;;;;;;;65.03;31.98;;;12.10;1.00;;;;;;5079733;28;20442;-77
2023/10/16 13:37:47;;;;;;;63.63;37.30;;;12.00;1.00;;;;;;5079955;28;20179;-77
2023/10/16 13:40:20;;;;;;;60.55;31.60;;;12.00;1.00;;;;;;5082680;28;20173;-77
2023/10/16 13:42:54;;;;;;;61.95;34.00;;;12.10;1.00;;;;;;5082260;28;20607;-77
2023/10/16 13:45:21;;;;;;;60.85;33.75;;;12.20;1.00;;;;;;5081281;28;20171;-77
2023/10/16 13:47:49;;;;;;;64.00;35.75;;;12.40;1.00;;;;;;5080527;28;20195;-77
2023/10/16 13:50:24;;;;;;;59.00;28.50;;;12.50;1.00;;;;;;5080510;28;20168;-77
2023/10/16 13:52:51;;;;;;;60.77;34.47;;;12.60;1.00;;;;;;5081257;28;20538;-77
2023/10/16 13:55:24;;;;;;;60.03;31.20;;;12.40;1.00;;;;;;5080549;28;20537;-77
2023/10/16 13:57:54;;;;;;;65.20;35.70;;;12.40;1.00;;;;;;5062488;28;20173;-77
2023/10/16 14:00:30;;;;;;;58.97;25.83;;;12.40;1.00;;;;;;5062602;28;20247;-77
2023/10/16 14:05:55;;;;;;;58.60;34.13;;;12.30;1.00;;;;;;5066801;28;20777;-77
2023/10/16 14:08:30;;;;;;;59.27;27.30;;;12.40;1.00;;;;;;5061999;28;20278;-77
2023/10/16 14:11:00;;;;;;;58.80;28.42;;;12.40;1.00;;;;;;5080321;28;20148;-77
2023/10/16 14:13:32;;;;;;;60.40;27.70;;;12.50;1.00;;;;;;5080165;28;20211;-77
2023/10/16 14:16:19;;;;;;;59.87;28.10;;;12.30;1.00;;;;;;5080040;28;20955;-77
2023/10/16 14:18:44;;;;;;;60.08;30.98;;;12.40;1.00;;;;;;5079266;28;20410;-77
2023/10/16 14:21:11;;;;;;;56.53;26.80;;;12.60;1.00;;;;;;5079834;28;20188;-77
2023/10/16 14:23:42;;;;;;;59.25;29.65;;;12.50;1.00;;;;;;5079986;28;20196;-77
2023/10/16 14:26:40;;;;;;;60.20;28.83;;;12.60;1.00;;;;;;5079990;28;20213;-77
2023/10/16 14:29:00;;;;;;;56.60;25.83;;;12.60;1.00;;;;;;5077054;28;20960;-77
2023/10/16 14:31:28;;;;;;;58.05;33.42;;;12.70;1.00;;;;;;5079835;28;20221;-77
2023/10/16 14:33:54;;;;;;;58.50;29.77;;;12.70;1.00;;;;;;5078305;28;20267;-77
2023/10/16 14:36:24;;;;;;;57.33;27.90;;;12.70;1.00;;;;;;5078479;28;20203;-77
2023/10/16 14:38:51;;;;;;;61.30;29.07;;;12.70;1.00;;;;;;5078582;28;20145;-77
2023/10/16 14:41:17;;;;;;;53.80;24.90;;;12.70;1.00;;;;;;5078585;28;20399;-77
2023/10/16 14:43:45;;;;;;;61.10;31.03;;;12.70;1.00;;;;;;5078429;28;20422;-77
2023/10/16 14:46:11;;;;;;;56.87;29.13;;;12.50;1.00;;;;;;5078449;28;20407;-77
2023/10/16 14:48:44;;;;;;;57.87;31.13;;;12.60;1.00;;;;;;5078069;28;20405;-77
2023/10/16 14:51:18;;;;;;;55.80;31.67;;;12.60;1.00;;;;;;5077967;28;20383;-77
2023/10/16 14:53:48;;;;;;;56.80;28.35;;;12.60;1.00;;;;;;5077884;28;20926;-77
2023/10/16 14:56:22;;;;;;;55.60;30.00;;;12.60;1.00;;;;;;5059269;28;20216;-77
2023/10/16 14:58:51;;;;;;;56.30;27.40;;;12.50;1.00;;;;;;5078564;28;20391;-77
2023/10/16 15:01:19;;;;;;;55.70;27.07;;;12.50;1.00;;;;;;5077743;28;20407;-77
2023/10/16 15:03:50;;;;;;;55.77;27.43;;;12.60;1.00;;;;;;5077745;28;20927;-77
2023/10/16 15:06:16;;;;;;;57.10;29.37;;;12.60;1.00;;;;;;5078507;28;20475;-77